Sébastien Pillon

Sébastien Pillon

Statistiques 2026

  • Courses courues : 4
  • Nb de victoires : -
  • Nb de places : 1
  • Écart gagnant : 21
  • Réussite à la gagne : -
  • Réussite à la place : 25%
Musique : 3a Da Da 0a (25) 8a 0a 5a Da 5a 6a 6a 5a 2a 3a Da 8a 0a 0a
DateRangCatégorieAlloc.Dist.HippodromeChevalRed. KmSpé.
29/07/12 4 Mixte 17 000€ 2 850m Brehal Tenor Royal 1'24"7 Attelé
28/07/12 D Trot 14 000€ 2 275m Graignes Tenor d'Essa Attelé
23/07/12 D Mixte 11 000€ 3 100m Plesse Tsar d'Ormoy Attelé
22/07/12 5 Mixte 32 000€ 2 625m La Roche Posay Palazio Valterne Attelé
22/07/12 8 Mixte 32 000€ 2 600m La Roche Posay Salinero Attelé
21/07/12 4 Trot 14 000€ 2 725m Graignes Ukita du Mesnil 1'18"3 Attelé
20/07/12 D Trot 14 000€ 2 750m Pornichet La Baule Spirit d'Or Attelé
15/07/12 0 Trot 16 000€ 2 925m Clairefontaine Tempete de Cambron Attelé
15/07/12 4 Trot 13 000€ 2 925m Clairefontaine Unika Sereda Attelé
15/07/12 9 Trot 10 000€ 2 925m Clairefontaine Tania du Bouffey Attelé
14/07/12 7 Trot 20 000€ 2 775m Les Sables D'Olonne Ukita du Mesnil 1'19"6 Attelé
14/07/12 4 Trot 25 000€ 2 775m Les Sables D'Olonne Salinero 1'18"4 Attelé
09/07/12 3 Mixte 15 000€ 3 125m Granville Sacha de la Vallee Attelé
08/07/12 1 Mixte 13 000€ 3 100m Nort Sur Erdre Tenor d'Essa TNC Attelé
04/07/12 D Trot 24 000€ 2 675m Lisieux Sancho du Parc Attelé
01/07/12 4 Trot 17 000€ 2 700m Agon Coutainville Tinily 1'20"6 Attelé
27/06/12 4 Trot 18 000€ 2 875m Laval Qurasso 1'15"7 Attelé
25/06/12 0 Trot 14 000€ 2 975m Le Lion D Angers Tse Tse du Bouffey Attelé
24/06/12 9 Mixte 13 000€ 3 125m Granville Talmida Attelé
24/06/12 D Mixte 12 000€ 3 125m Granville Une Histoire d'Oa Attelé
18/06/12 9 Mixte 15 000€ 3 000m Nantes Ukita du Mesnil 1'17"9 Attelé
17/06/12 4 Trot 19 000€ 2 700m Erbray Spirit d'Or 1'20"4 Attelé
17/06/12 0 Trot 15 000€ 2 700m Erbray Talmida Attelé
17/06/12 4 Trot 15 000€ 2 675m Erbray Tenor d'Essa 1'24"0 Attelé
10/06/12 2 Trot 16 000€ 2 625m La Roche Posay Sancho du Parc 1'18"7 Attelé
10/06/12 6 Trot 14 000€ 2 625m La Roche Posay Ukita du Mesnil 1'20"9 Attelé
03/06/12 2 Trot 12 000€ 2 925m Bourigny Tania du Bouffey Attelé
02/06/12 12 Trot 32 000€ 2 875m Laval Palazio Valterne 1'15''9 Attelé
01/06/12 0 Trot 15 000€ 2 725m Graignes Tosca du Logis Attelé
31/05/12 0 Trot 35 000€ 2 850m Mauquenchy Sancho du Parc Attelé
28/05/12 D Trot 12 000€ 2 525m Gournay En Bray Turbo du Sound Attelé
27/05/12 0 Trot 20 000€ 2 900m Argentan Spirit d'Or Attelé
20/05/12 3 Trot 16 000€ 2 650m Cherbourg Ukita du Mesnil 1'21"5 Attelé
18/05/12 4 Trot 20 000€ 2 900m Laval Sancho du Parc 1'18"1 Attelé
17/05/12 2 Trot 22 000€ 3 000m Nantes Reve de Saint Maur 1'16"4 Attelé
17/05/12 8 Trot 30 000€ 3 000m Nantes Phoebus Baz 1'16"5 Attelé
13/05/12 0 Trot 19 000€ 2 575m Agen Qurasso Attelé
11/05/12 D Trot 22 000€ 2 625m Cherbourg Ukita du Mesnil Attelé
06/05/12 4 Trot 20 000€ 2 575m Agen Qurasso 1'15"6 Attelé
04/05/12 9 Trot 35 000€ 2 825m Chartres Palazio Valterne 1'16"8 Attelé
01/05/12 8 Trot 12 000€ 2 725m Evreux Televa Attelé
30/04/12 2 Trot 22 000€ 2 800m Le Croise Laroche Sancho du Parc 1'16"6 Attelé
22/04/12 D Trot 14 000€ 2 875m Villedieu Les Poeles Twist de Laigne Attelé
22/04/12 0 Trot 24 000€ 2 875m Villedieu Les Poeles Spirit d'Or Attelé
22/04/12 D Trot 11 000€ 2 900m Villedieu Les Poeles Televa Attelé
18/04/12 1 Trot 21 000€ 2 825m Pontchateau Sancho du Parc 1'17"3 Attelé lire

Après avoir patienté, a progressé à l'abri dans le dernier tournant puis est venu faire nettement la différence dans les 150 derniers mètres.

15/04/12 5 Trot 18 000€ 2 775m Elbeuf Qurasso Attelé
09/04/12 6 Trot 12 000€ 2 875m Villedieu Les Poeles Ramuntcho Attelé
08/04/12 5 Trot 22 000€ 2 100m Lisieux Qurasso 1'15"9 Attelé
08/04/12 5 Trot 18 000€ 2 725m Lisieux Saphir de Marigny 1'17"0 Attelé